sensor_id;sensor_type;location;lat;lon;timestamp;pressure;altitude;pressure_sealevel;temperature;humidity
47366;BME280;33105;47.964;7.982;2023-11-21T00:00:52;96186.78;;;7.45;97.62
47366;BME280;33105;47.964;7.982;2023-11-21T00:03:53;96184.25;;;7.34;99.10
47366;BME280;33105;47.964;7.982;2023-11-21T00:06:56;96175.31;;;7.38;99.44
47366;BME280;33105;47.964;7.982;2023-11-21T00:09:57;96179.25;;;7.26;99.04
47366;BME280;33105;47.964;7.982;2023-11-21T00:12:58;96173.50;;;7.22;100.00
47366;BME280;33105;47.964;7.982;2023-11-21T00:15:59;96171.09;;;7.26;100.00
47366;BME280;33105;47.964;7.982;2023-11-21T00:19:01;96171.09;;;7.26;100.00
47366;BME280;33105;47.964;7.982;2023-11-21T00:22:02;96173.47;;;7.17;100.00
47366;BME280;33105;47.964;7.982;2023-11-21T00:25:03;96169.22;;;7.04;100.00
47366;BME280;33105;47.964;7.982;2023-11-21T00:28:05;96168.06;;;7.22;100.00
47366;BME280;33105;47.964;7.982;2023-11-21T00:31:06;96162.59;;;7.17;100.00
47366;BME280;33105;47.964;7.982;2023-11-21T00:34:08;96161.00;;;7.21;100.00
47366;BME280;33105;47.964;7.982;2023-11-21T00:37:09;96158.69;;;7.08;100.00
47366;BME280;33105;47.964;7.982;2023-11-21T00:40:12;96157.16;;;7.17;100.00
47366;BME280;33105;47.964;7.982;2023-11-21T00:43:13;96157.03;;;7.07;100.00
47366;BME280;33105;47.964;7.982;2023-11-21T00:46:14;96141.69;;;7.18;100.00
47366;BME280;33105;47.964;7.982;2023-11-21T00:49:16;96157.28;;;7.05;100.00
47366;BME280;33105;47.964;7.982;2023-11-21T00:52:17;96146.69;;;7.04;100.00
47366;BME280;33105;47.964;7.982;2023-11-21T00:55:18;96159.63;;;6.97;100.00
47366;BME280;33105;47.964;7.982;2023-11-21T00:58:19;96151.22;;;6.98;100.00
47366;BME280;33105;47.964;7.982;2023-11-21T01:01:21;96133.34;;;7.02;100.00
47366;BME280;33105;47.964;7.982;2023-11-21T01:04:25;96152.88;;;6.77;100.00
47366;BME280;33105;47.964;7.982;2023-11-21T01:07:26;96155.53;;;6.72;100.00
47366;BME280;33105;47.964;7.982;2023-11-21T01:10:28;96164.19;;;6.69;100.00
47366;BME280;33105;47.964;7.982;2023-11-21T01:13:29;96155.81;;;6.93;100.00
47366;BME280;33105;47.964;7.982;2023-11-21T01:16:30;96162.16;;;6.81;100.00
47366;BME280;33105;47.964;7.982;2023-11-21T01:19:33;96156.16;;;6.79;100.00
47366;BME280;33105;47.964;7.982;2023-11-21T01:22:35;96161.75;;;6.90;100.00
47366;BME280;33105;47.964;7.982;2023-11-21T01:25:36;96149.59;;;6.75;100.00
47366;BME280;33105;47.964;7.982;2023-11-21T01:28:37;96165.38;;;6.78;100.00
47366;BME280;33105;47.964;7.982;2023-11-21T01:31:38;96165.72;;;6.82;100.00
47366;BME280;33105;47.964;7.982;2023-11-21T01:34:40;96162.75;;;6.83;100.00
47366;BME280;33105;47.964;7.982;2023-11-21T01:37:42;96159.06;;;6.73;100.00
47366;BME280;33105;47.964;7.982;2023-11-21T01:40:43;96154.66;;;6.67;100.00
47366;BME280;33105;47.964;7.982;2023-11-21T01:43:44;96157.06;;;6.63;100.00
47366;BME280;33105;47.964;7.982;2023-11-21T01:46:45;96161.66;;;6.63;100.00
47366;BME280;33105;47.964;7.982;2023-11-21T01:49:48;96154.53;;;6.57;100.00
47366;BME280;33105;47.964;7.982;2023-11-21T01:52:50;96166.63;;;6.49;100.00
47366;BME280;33105;47.964;7.982;2023-11-21T01:55:51;96174.41;;;6.62;100.00
47366;BME280;33105;47.964;7.982;2023-11-21T01:58:54;96161.41;;;6.64;100.00
47366;BME280;33105;47.964;7.982;2023-11-21T02:01:55;96151.38;;;6.65;100.00
47366;BME280;33105;47.964;7.982;2023-11-21T02:04:57;96151.31;;;6.60;100.00
47366;BME280;33105;47.964;7.982;2023-11-21T02:07:58;96144.19;;;6.75;100.00
47366;BME280;33105;47.964;7.982;2023-11-21T02:10:59;96155.34;;;6.79;100.00
47366;BME280;33105;47.964;7.982;2023-11-21T02:14:01;96156.25;;;6.85;100.00
47366;BME280;33105;47.964;7.982;2023-11-21T02:17:02;96152.38;;;6.80;100.00
47366;BME280;33105;47.964;7.982;2023-11-21T02:20:06;96157.19;;;6.73;100.00
47366;BME280;33105;47.964;7.982;2023-11-21T02:23:08;96156.84;;;6.70;100.00
47366;BME280;33105;47.964;7.982;2023-11-21T02:26:09;96157.81;;;6.59;100.00
47366;BME280;33105;47.964;7.982;2023-11-21T02:29:10;96157.56;;;6.60;100.00
47366;BME280;33105;47.964;7.982;2023-11-21T02:32:14;96148.59;;;6.38;100.00
47366;BME280;33105;47.964;7.982;2023-11-21T02:35:15;96150.56;;;6.42;100.00
47366;BME280;33105;47.964;7.982;2023-11-21T02:38:16;96156.66;;;6.55;100.00
47366;BME280;33105;47.964;7.982;2023-11-21T02:41:18;96159.47;;;6.60;100.00
47366;BME280;33105;47.964;7.982;2023-11-21T02:44:19;96153.28;;;6.64;100.00
47366;BME280;33105;47.964;7.982;2023-11-21T02:47:20;96157.91;;;6.47;100.00
47366;BME280;33105;47.964;7.982;2023-11-21T02:50:21;96160.91;;;6.67;100.00
47366;BME280;33105;47.964;7.982;2023-11-21T02:53:23;96160.91;;;6.67;100.00
47366;BME280;33105;47.964;7.982;2023-11-21T02:56:25;96167.91;;;6.63;100.00
47366;BME280;33105;47.964;7.982;2023-11-21T02:59:27;96159.13;;;6.56;100.00
47366;BME280;33105;47.964;7.982;2023-11-21T03:02:28;96165.44;;;6.40;100.00
47366;BME280;33105;47.964;7.982;2023-11-21T03:05:30;96154.78;;;6.55;100.00
47366;BME280;33105;47.964;7.982;2023-11-21T03:08:32;96144.00;;;6.82;100.00
47366;BME280;33105;47.964;7.982;2023-11-21T03:11:33;96148.53;;;6.76;100.00
47366;BME280;33105;47.964;7.982;2023-11-21T03:14:34;96148.22;;;6.73;100.00
47366;BME280;33105;47.964;7.982;2023-11-21T03:17:36;96143.34;;;6.53;100.00
47366;BME280;33105;47.964;7.982;2023-11-21T03:20:38;96149.84;;;6.52;100.00
47366;BME280;33105;47.964;7.982;2023-11-21T03:23:39;96134.13;;;6.76;100.00
47366;BME280;33105;47.964;7.982;2023-11-21T03:26:41;96140.38;;;6.76;100.00
47366;BME280;33105;47.964;7.982;2023-11-21T03:29:42;96139.88;;;6.79;100.00
47366;BME280;33105;47.964;7.982;2023-11-21T03:32:44;96147.59;;;6.88;100.00
47366;BME280;33105;47.964;7.982;2023-11-21T03:35:46;96146.81;;;6.70;100.00
47366;BME280;33105;47.964;7.982;2023-11-21T03:38:48;96154.09;;;6.65;100.00
47366;BME280;33105;47.964;7.982;2023-11-21T03:41:49;96150.00;;;6.62;100.00
47366;BME280;33105;47.964;7.982;2023-11-21T03:44:54;96152.97;;;6.82;100.00
47366;BME280;33105;47.964;7.982;2023-11-21T03:47:55;96151.81;;;6.78;100.00
47366;BME280;33105;47.964;7.982;2023-11-21T03:50:56;96149.09;;;6.78;100.00
47366;BME280;33105;47.964;7.982;2023-11-21T03:53:58;96140.03;;;6.90;100.00
47366;BME280;33105;47.964;7.982;2023-11-21T03:56:59;96149.78;;;6.69;100.00
47366;BME280;33105;47.964;7.982;2023-11-21T04:00:00;96145.88;;;6.81;100.00
47366;BME280;33105;47.964;7.982;2023-11-21T04:03:01;96143.66;;;6.78;100.00
47366;BME280;33105;47.964;7.982;2023-11-21T04:06:04;96151.75;;;6.73;100.00
47366;BME280;33105;47.964;7.982;2023-11-21T04:09:07;96145.50;;;6.73;100.00
47366;BME280;33105;47.964;7.982;2023-11-21T04:12:08;96147.22;;;6.79;100.00
47366;BME280;33105;47.964;7.982;2023-11-21T04:15:12;96146.63;;;6.77;100.00
47366;BME280;33105;47.964;7.982;2023-11-21T04:18:14;96158.47;;;6.88;100.00
47366;BME280;33105;47.964;7.982;2023-11-21T04:21:15;96168.00;;;6.90;100.00
47366;BME280;33105;47.964;7.982;2023-11-21T04:24:17;96162.81;;;6.89;100.00
47366;BME280;33105;47.964;7.982;2023-11-21T04:27:18;96167.03;;;6.79;100.00
47366;BME280;33105;47.964;7.982;2023-11-21T04:30:19;96169.75;;;7.01;100.00
47366;BME280;33105;47.964;7.982;2023-11-21T04:33:21;96160.34;;;6.87;100.00
47366;BME280;33105;47.964;7.982;2023-11-21T04:36:23;96171.81;;;6.94;100.00
47366;BME280;33105;47.964;7.982;2023-11-21T04:39:24;96170.63;;;6.63;100.00
47366;BME280;33105;47.964;7.982;2023-11-21T04:42:26;96170.06;;;6.61;100.00
47366;BME280;33105;47.964;7.982;2023-11-21T04:45:27;96173.66;;;6.67;100.00
47366;BME280;33105;47.964;7.982;2023-11-21T04:48:28;96166.34;;;6.67;100.00
47366;BME280;33105;47.964;7.982;2023-11-21T04:51:29;96165.53;;;6.67;100.00
47366;BME280;33105;47.964;7.982;2023-11-21T04:54:33;96176.31;;;6.62;100.00
47366;BME280;33105;47.964;7.982;2023-11-21T04:57:34;96179.44;;;6.54;100.00
47366;BME280;33105;47.964;7.982;2023-11-21T05:00:35;96183.50;;;6.73;100.00
47366;BME280;33105;47.964;7.982;2023-11-21T05:03:39;96183.50;;;6.73;100.00
47366;BME280;33105;47.964;7.982;2023-11-21T05:06:41;96181.50;;;6.63;100.00
47366;BME280;33105;47.964;7.982;2023-11-21T05:09:43;96186.66;;;6.65;100.00
47366;BME280;33105;47.964;7.982;2023-11-21T05:12:47;96186.66;;;6.65;100.00
47366;BME280;33105;47.964;7.982;2023-11-21T05:15:49;96186.84;;;6.80;100.00
47366;BME280;33105;47.964;7.982;2023-11-21T05:18:50;96183.19;;;6.69;100.00
47366;BME280;33105;47.964;7.982;2023-11-21T05:21:51;96185.72;;;6.76;100.00
47366;BME280;33105;47.964;7.982;2023-11-21T05:24:53;96200.25;;;6.87;100.00
47366;BME280;33105;47.964;7.982;2023-11-21T05:27:54;96196.81;;;6.74;100.00
47366;BME280;33105;47.964;7.982;2023-11-21T05:30:55;96202.31;;;6.79;100.00
47366;BME280;33105;47.964;7.982;2023-11-21T05:33:56;96200.81;;;6.67;100.00
47366;BME280;33105;47.964;7.982;2023-11-21T05:36:58;96197.66;;;6.75;100.00
47366;BME280;33105;47.964;7.982;2023-11-21T05:39:59;96213.94;;;6.75;100.00
47366;BME280;33105;47.964;7.982;2023-11-21T05:43:06;96211.78;;;6.77;100.00
47366;BME280;33105;47.964;7.982;2023-11-21T05:46:08;96215.50;;;6.71;100.00
47366;BME280;33105;47.964;7.982;2023-11-21T05:49:10;96227.13;;;6.66;100.00
47366;BME280;33105;47.964;7.982;2023-11-21T05:52:11;96229.28;;;6.64;100.00
47366;BME280;33105;47.964;7.982;2023-11-21T05:55:13;96225.78;;;6.69;100.00
47366;BME280;33105;47.964;7.982;2023-11-21T05:58:14;96230.19;;;6.53;100.00
47366;BME280;33105;47.964;7.982;2023-11-21T06:01:15;96239.88;;;6.49;100.00
47366;BME280;33105;47.964;7.982;2023-11-21T06:04:17;96238.03;;;6.71;100.00
47366;BME280;33105;47.964;7.982;2023-11-21T06:07:19;96241.41;;;6.78;100.00
47366;BME280;33105;47.964;7.982;2023-11-21T06:10:21;96233.91;;;6.86;100.00
47366;BME280;33105;47.964;7.982;2023-11-21T06:13:22;96243.63;;;6.81;100.00
47366;BME280;33105;47.964;7.982;2023-11-21T06:16:25;96249.47;;;6.73;100.00
47366;BME280;33105;47.964;7.982;2023-11-21T06:19:26;96245.44;;;6.76;100.00
47366;BME280;33105;47.964;7.982;2023-11-21T06:22:28;96255.91;;;6.67;100.00
47366;BME280;33105;47.964;7.982;2023-11-21T06:25:31;96261.69;;;6.54;100.00
47366;BME280;33105;47.964;7.982;2023-11-21T06:28:36;96267.09;;;6.54;100.00
47366;BME280;33105;47.964;7.982;2023-11-21T06:31:38;96275.66;;;6.46;100.00
47366;BME280;33105;47.964;7.982;2023-11-21T06:34:42;96269.94;;;6.42;100.00
47366;BME280;33105;47.964;7.982;2023-11-21T06:37:43;96263.25;;;6.50;100.00
47366;BME280;33105;47.964;7.982;2023-11-21T06:40:48;96275.81;;;6.56;100.00
47366;BME280;33105;47.964;7.982;2023-11-21T06:43:49;96273.69;;;6.58;100.00
47366;BME280;33105;47.964;7.982;2023-11-21T06:46:51;96270.31;;;6.68;100.00
47366;BME280;33105;47.964;7.982;2023-11-21T06:49:52;96273.66;;;6.75;100.00
47366;BME280;33105;47.964;7.982;2023-11-21T06:52:54;96278.75;;;6.71;100.00
47366;BME280;33105;47.964;7.982;2023-11-21T06:55:55;96280.22;;;6.79;100.00
47366;BME280;33105;47.964;7.982;2023-11-21T06:58:56;96281.63;;;6.81;100.00
47366;BME280;33105;47.964;7.982;2023-11-21T07:01:57;96293.06;;;6.83;100.00
47366;BME280;33105;47.964;7.982;2023-11-21T07:04:59;96283.78;;;6.79;100.00
47366;BME280;33105;47.964;7.982;2023-11-21T07:08:00;96270.84;;;6.87;100.00
47366;BME280;33105;47.964;7.982;2023-11-21T07:11:05;96277.94;;;6.88;100.00
47366;BME280;33105;47.964;7.982;2023-11-21T07:14:06;96286.31;;;6.69;100.00
47366;BME280;33105;47.964;7.982;2023-11-21T07:17:11;96294.91;;;6.61;100.00
47366;BME280;33105;47.964;7.982;2023-11-21T07:20:13;96288.09;;;6.59;100.00
47366;BME280;33105;47.964;7.982;2023-11-21T07:23:14;96281.41;;;6.66;100.00
47366;BME280;33105;47.964;7.982;2023-11-21T07:26:16;96292.25;;;6.83;100.00
47366;BME280;33105;47.964;7.982;2023-11-21T07:29:18;96293.09;;;6.67;100.00
47366;BME280;33105;47.964;7.982;2023-11-21T07:32:20;96293.41;;;6.70;100.00
47366;BME280;33105;47.964;7.982;2023-11-21T07:35:21;96296.13;;;6.54;100.00
47366;BME280;33105;47.964;7.982;2023-11-21T07:38:22;96297.53;;;6.56;100.00
47366;BME280;33105;47.964;7.982;2023-11-21T07:41:24;96296.88;;;6.66;100.00
47366;BME280;33105;47.964;7.982;2023-11-21T07:44:25;96293.09;;;6.67;100.00
47366;BME280;33105;47.964;7.982;2023-11-21T07:47:27;96299.03;;;6.64;100.00
47366;BME280;33105;47.964;7.982;2023-11-21T07:50:28;96290.94;;;6.86;100.00
47366;BME280;33105;47.964;7.982;2023-11-21T07:53:30;96303.06;;;7.00;100.00
47366;BME280;33105;47.964;7.982;2023-11-21T07:56:31;96295.16;;;6.98;100.00
47366;BME280;33105;47.964;7.982;2023-11-21T07:59:32;96297.00;;;6.93;100.00
47366;BME280;33105;47.964;7.982;2023-11-21T08:02:33;96301.50;;;7.04;100.00
47366;BME280;33105;47.964;7.982;2023-11-21T08:05:35;96311.84;;;7.07;100.00
47366;BME280;33105;47.964;7.982;2023-11-21T08:08:36;96322.31;;;6.98;100.00
47366;BME280;33105;47.964;7.982;2023-11-21T08:11:38;96327.25;;;7.01;100.00
47366;BME280;33105;47.964;7.982;2023-11-21T08:14:40;96323.22;;;7.04;100.00
47366;BME280;33105;47.964;7.982;2023-11-21T08:17:41;96319.69;;;7.03;100.00
47366;BME280;33105;47.964;7.982;2023-11-21T08:20:43;96328.81;;;6.97;100.00
47366;BME280;33105;47.964;7.982;2023-11-21T08:23:46;96327.13;;;6.91;100.00
47366;BME280;33105;47.964;7.982;2023-11-21T08:26:48;96333.22;;;6.81;100.00
47366;BME280;33105;47.964;7.982;2023-11-21T08:29:49;96334.50;;;6.96;100.00
47366;BME280;33105;47.964;7.982;2023-11-21T08:32:51;96339.44;;;6.99;100.00
47366;BME280;33105;47.964;7.982;2023-11-21T08:35:54;96337.13;;;7.07;100.00
47366;BME280;33105;47.964;7.982;2023-11-21T08:38:55;96341.38;;;7.20;100.00
47366;BME280;33105;47.964;7.982;2023-11-21T08:41:57;96346.94;;;7.30;100.00
47366;BME280;33105;47.964;7.982;2023-11-21T08:44:58;96341.09;;;7.38;100.00
47366;BME280;33105;47.964;7.982;2023-11-21T08:48:01;96345.69;;;7.16;100.00
47366;BME280;33105;47.964;7.982;2023-11-21T08:51:03;96355.47;;;7.17;100.00
47366;BME280;33105;47.964;7.982;2023-11-21T08:54:05;96351.41;;;7.20;100.00
47366;BME280;33105;47.964;7.982;2023-11-21T08:57:08;96348.53;;;7.26;100.00
47366;BME280;33105;47.964;7.982;2023-11-21T09:00:10;96347.94;;;7.24;100.00
47366;BME280;33105;47.964;7.982;2023-11-21T09:03:13;96358.69;;;7.14;100.00
47366;BME280;33105;47.964;7.982;2023-11-21T09:06:14;96358.19;;;7.17;100.00
47366;BME280;33105;47.964;7.982;2023-11-21T09:09:15;96356.75;;;6.93;100.00
47366;BME280;33105;47.964;7.982;2023-11-21T09:12:16;96361.75;;;7.01;100.00
47366;BME280;33105;47.964;7.982;2023-11-21T09:15:20;96355.91;;;7.09;100.00
47366;BME280;33105;47.964;7.982;2023-11-21T09:18:21;96363.00;;;6.76;100.00
47366;BME280;33105;47.964;7.982;2023-11-21T09:21:22;96364.91;;;6.59;100.00
47366;BME280;33105;47.964;7.982;2023-11-21T09:24:25;96374.41;;;6.45;100.00
47366;BME280;33105;47.964;7.982;2023-11-21T09:27:26;96369.09;;;6.83;100.00
47366;BME280;33105;47.964;7.982;2023-11-21T09:30:27;96367.28;;;6.89;100.00
47366;BME280;33105;47.964;7.982;2023-11-21T09:33:29;96378.47;;;6.93;100.00
47366;BME280;33105;47.964;7.982;2023-11-21T09:36:31;96386.75;;;7.03;100.00
47366;BME280;33105;47.964;7.982;2023-11-21T09:39:34;96387.88;;;7.24;100.00
47366;BME280;33105;47.964;7.982;2023-11-21T09:42:40;96388.91;;;7.18;100.00
47366;BME280;33105;47.964;7.982;2023-11-21T09:45:54;96390.47;;;6.97;100.00
47366;BME280;33105;47.964;7.982;2023-11-21T09:48:59;96385.28;;;7.12;100.00
47366;BME280;33105;47.964;7.982;2023-11-21T09:52:02;96385.31;;;7.34;100.00
47366;BME280;33105;47.964;7.982;2023-11-21T09:55:04;96388.28;;;7.32;100.00
47366;BME280;33105;47.964;7.982;2023-11-21T09:58:08;96388.78;;;7.29;100.00
47366;BME280;33105;47.964;7.982;2023-11-21T10:01:13;96390.13;;;7.10;100.00
47366;BME280;33105;47.964;7.982;2023-11-21T10:04:16;96385.16;;;7.24;100.00
47366;BME280;33105;47.964;7.982;2023-11-21T10:07:19;96379.88;;;7.34;100.00
47366;BME280;33105;47.964;7.982;2023-11-21T10:10:22;96393.91;;;7.09;100.00
47366;BME280;33105;47.964;7.982;2023-11-21T10:13:24;96393.25;;;7.02;100.00
47366;BME280;33105;47.964;7.982;2023-11-21T10:16:26;96389.34;;;6.93;100.00
47366;BME280;33105;47.964;7.982;2023-11-21T10:19:29;96385.88;;;6.80;100.00
47366;BME280;33105;47.964;7.982;2023-11-21T10:22:30;96396.31;;;7.05;100.00
47366;BME280;33105;47.964;7.982;2023-11-21T10:25:31;96401.78;;;7.27;100.00
47366;BME280;33105;47.964;7.982;2023-11-21T10:28:35;96400.56;;;7.18;100.00
47366;BME280;33105;47.964;7.982;2023-11-21T10:31:38;96396.34;;;7.27;100.00
47366;BME280;33105;47.964;7.982;2023-11-21T10:34:40;96400.88;;;7.38;100.00
47366;BME280;33105;47.964;7.982;2023-11-21T10:37:42;96403.50;;;7.33;100.00
47366;BME280;33105;47.964;7.982;2023-11-21T10:40:46;96401.97;;;7.21;100.00
47366;BME280;33105;47.964;7.982;2023-11-21T10:43:48;96403.56;;;6.83;100.00
47366;BME280;33105;47.964;7.982;2023-11-21T10:46:51;96393.19;;;6.97;100.00
47366;BME280;33105;47.964;7.982;2023-11-21T10:49:53;96397.03;;;7.01;100.00
47366;BME280;33105;47.964;7.982;2023-11-21T10:52:54;96403.63;;;7.05;100.00
47366;BME280;33105;47.964;7.982;2023-11-21T10:56:02;96402.66;;;7.11;100.00
47366;BME280;33105;47.964;7.982;2023-11-21T10:59:09;96400.25;;;6.98;100.00
47366;BME280;33105;47.964;7.982;2023-11-21T11:02:32;96398.38;;;7.15;100.00
47366;BME280;33105;47.964;7.982;2023-11-21T11:05:35;96391.16;;;7.26;100.00
47366;BME280;33105;47.964;7.982;2023-11-21T11:08:37;96401.63;;;7.34;100.00
47366;BME280;33105;47.964;7.982;2023-11-21T11:11:40;96401.75;;;7.44;100.00
47366;BME280;33105;47.964;7.982;2023-11-21T11:14:42;96397.78;;;7.13;100.00
47366;BME280;33105;47.964;7.982;2023-11-21T11:17:46;96403.81;;;7.15;100.00
47366;BME280;33105;47.964;7.982;2023-11-21T11:20:48;96408.94;;;7.33;100.00
47366;BME280;33105;47.964;7.982;2023-11-21T11:27:55;96409.53;;;7.35;100.00
47366;BME280;33105;47.964;7.982;2023-11-21T11:31:30;96407.38;;;7.37;100.00
47366;BME280;33105;47.964;7.982;2023-11-21T11:34:37;96415.28;;;7.39;100.00
47366;BME280;33105;47.964;7.982;2023-11-21T11:37:43;96408.38;;;7.31;100.00
47366;BME280;33105;47.964;7.982;2023-11-21T11:40:45;96406.09;;;7.45;100.00
47366;BME280;33105;47.964;7.982;2023-11-21T11:43:47;96405.03;;;7.46;100.00
47366;BME280;33105;47.964;7.982;2023-11-21T11:46:48;96412.75;;;7.32;100.00
47366;BME280;33105;47.964;7.982;2023-11-21T11:50:03;96407.50;;;7.47;100.00
47366;BME280;33105;47.964;7.982;2023-11-21T11:53:15;96412.66;;;7.27;100.00
47366;BME280;33105;47.964;7.982;2023-11-21T11:59:21;96407.38;;;7.21;100.00
47366;BME280;33105;47.964;7.982;2023-11-21T12:02:23;96411.66;;;7.33;100.00
47366;BME280;33105;47.964;7.982;2023-11-21T12:05:26;96410.44;;;7.24;100.00
47366;BME280;33105;47.964;7.982;2023-11-21T12:08:31;96411.44;;;7.01;100.00
47366;BME280;33105;47.964;7.982;2023-11-21T12:11:33;96411.88;;;7.10;100.00
47366;BME280;33105;47.964;7.982;2023-11-21T12:14:36;96412.69;;;7.10;100.00
47366;BME280;33105;47.964;7.982;2023-11-21T12:17:42;96413.25;;;7.12;100.00
47366;BME280;33105;47.964;7.982;2023-11-21T12:20:44;96412.00;;;7.20;100.00
47366;BME280;33105;47.964;7.982;2023-11-21T12:23:47;96405.25;;;7.39;100.00
47366;BME280;33105;47.964;7.982;2023-11-21T12:26:49;96406.88;;;7.40;100.00
47366;BME280;33105;47.964;7.982;2023-11-21T12:29:50;96412.16;;;7.30;100.00
47366;BME280;33105;47.964;7.982;2023-11-21T12:32:52;96412.25;;;7.35;100.00
47366;BME280;33105;47.964;7.982;2023-11-21T12:35:54;96407.88;;;7.34;100.00
47366;BME280;33105;47.964;7.982;2023-11-21T12:38:55;96411.41;;;7.35;100.00
47366;BME280;33105;47.964;7.982;2023-11-21T12:41:57;96416.13;;;7.39;100.00
47366;BME280;33105;47.964;7.982;2023-11-21T12:48:15;96417.69;;;7.35;100.00
47366;BME280;33105;47.964;7.982;2023-11-21T12:51:23;96420.53;;;7.45;100.00
47366;BME280;33105;47.964;7.982;2023-11-21T12:54:25;96422.31;;;7.57;100.00
47366;BME280;33105;47.964;7.982;2023-11-21T12:57:27;96416.16;;;7.44;100.00
47366;BME280;33105;47.964;7.982;2023-11-21T13:00:40;96411.38;;;7.51;100.00
47366;BME280;33105;47.964;7.982;2023-11-21T13:03:43;96406.00;;;7.57;100.00
47366;BME280;33105;47.964;7.982;2023-11-21T13:06:46;96419.59;;;7.57;100.00
47366;BME280;33105;47.964;7.982;2023-11-21T13:09:47;96422.66;;;7.60;100.00
47366;BME280;33105;47.964;7.982;2023-11-21T13:12:50;96413.19;;;7.84;100.00
47366;BME280;33105;47.964;7.982;2023-11-21T13:15:55;96425.94;;;7.84;100.00
47366;BME280;33105;47.964;7.982;2023-11-21T13:19:01;96420.84;;;7.88;100.00
47366;BME280;33105;47.964;7.982;2023-11-21T13:22:04;96424.72;;;7.75;100.00
47366;BME280;33105;47.964;7.982;2023-11-21T13:25:05;96429.66;;;7.78;100.00
47366;BME280;33105;47.964;7.982;2023-11-21T13:28:08;96430.81;;;7.82;100.00
47366;BME280;33105;47.964;7.982;2023-11-21T13:31:13;96440.03;;;7.81;100.00
47366;BME280;33105;47.964;7.982;2023-11-21T13:34:33;96436.69;;;7.74;100.00
47366;BME280;33105;47.964;7.982;2023-11-21T13:37:37;96443.19;;;7.73;100.00
47366;BME280;33105;47.964;7.982;2023-11-21T13:40:40;96451.22;;;7.63;100.00
47366;BME280;33105;47.964;7.982;2023-11-21T13:43:47;96455.09;;;7.67;100.00
47366;BME280;33105;47.964;7.982;2023-11-21T13:46:59;96451.06;;;7.53;100.00
47366;BME280;33105;47.964;7.982;2023-11-21T13:50:01;96449.50;;;7.57;100.00
47366;BME280;33105;47.964;7.982;2023-11-21T13:53:03;96454.03;;;7.51;100.00
47366;BME280;33105;47.964;7.982;2023-11-21T13:56:11;96459.22;;;7.53;100.00
47366;BME280;33105;47.964;7.982;2023-11-21T13:59:14;96453.78;;;7.53;100.00
47366;BME280;33105;47.964;7.982;2023-11-21T14:02:26;96459.97;;;7.48;100.00
47366;BME280;33105;47.964;7.982;2023-11-21T14:05:35;96461.53;;;7.61;100.00
47366;BME280;33105;47.964;7.982;2023-11-21T14:08:36;96461.53;;;7.61;100.00
47366;BME280;33105;47.964;7.982;2023-11-21T14:11:37;96469.75;;;7.66;100.00
47366;BME280;33105;47.964;7.982;2023-11-21T14:14:39;96467.59;;;7.68;100.00
47366;BME280;33105;47.964;7.982;2023-11-21T14:17:40;96475.50;;;7.69;100.00
47366;BME280;33105;47.964;7.982;2023-11-21T14:20:43;96465.78;;;7.73;100.00
47366;BME280;33105;47.964;7.982;2023-11-21T14:23:45;96465.59;;;7.80;100.00
47366;BME280;33105;47.964;7.982;2023-11-21T14:26:47;96471.41;;;7.67;100.00
47366;BME280;33105;47.964;7.982;2023-11-21T14:29:49;96471.94;;;7.69;100.00
47366;BME280;33105;47.964;7.982;2023-11-21T14:32:51;96481.97;;;7.63;100.00
47366;BME280;33105;47.964;7.982;2023-11-21T14:35:52;96486.00;;;7.61;100.00
47366;BME280;33105;47.964;7.982;2023-11-21T14:38:53;96490.94;;;7.64;100.00
47366;BME280;33105;47.964;7.982;2023-11-21T14:41:55;96493.81;;;7.57;100.00
47366;BME280;33105;47.964;7.982;2023-11-21T14:44:57;96496.94;;;7.49;100.00
47366;BME280;33105;47.964;7.982;2023-11-21T14:48:04;96497.63;;;7.56;100.00
47366;BME280;33105;47.964;7.982;2023-11-21T14:51:16;96500.91;;;7.58;100.00
47366;BME280;33105;47.964;7.982;2023-11-21T14:54:33;96508.16;;;7.53;100.00
47366;BME280;33105;47.964;7.982;2023-11-21T14:57:41;96511.44;;;7.55;100.00
47366;BME280;33105;47.964;7.982;2023-11-21T15:00:42;96507.41;;;7.57;100.00
47366;BME280;33105;47.964;7.982;2023-11-21T15:03:45;96506.50;;;7.51;100.00
47366;BME280;33105;47.964;7.982;2023-11-21T15:06:51;96516.72;;;7.44;100.00
47366;BME280;33105;47.964;7.982;2023-11-21T15:09:54;96514.53;;;7.41;100.00
47366;BME280;33105;47.964;7.982;2023-11-21T15:12:55;96521.19;;;7.34;100.00
47366;BME280;33105;47.964;7.982;2023-11-21T15:15:58;96524.28;;;7.42;100.00
47366;BME280;33105;47.964;7.982;2023-11-21T15:19:08;96523.22;;;7.43;100.00
47366;BME280;33105;47.964;7.982;2023-11-21T15:22:10;96523.16;;;7.38;100.00
47366;BME280;33105;47.964;7.982;2023-11-21T15:25:16;96532.53;;;7.31;100.00
47366;BME280;33105;47.964;7.982;2023-11-21T15:28:17;96530.16;;;7.34;100.00
47366;BME280;33105;47.964;7.982;2023-11-21T15:31:19;96547.53;;;7.33;100.00
47366;BME280;33105;47.964;7.982;2023-11-21T15:34:25;96541.19;;;7.28;100.00
47366;BME280;33105;47.964;7.982;2023-11-21T15:37:27;96545.72;;;7.39;100.00
47366;BME280;33105;47.964;7.982;2023-11-21T15:40:30;96549.75;;;7.36;100.00
47366;BME280;33105;47.964;7.982;2023-11-21T15:43:32;96549.00;;;7.24;100.00
47366;BME280;33105;47.964;7.982;2023-11-21T15:46:34;96548.28;;;7.29;100.00
47366;BME280;33105;47.964;7.982;2023-11-21T15:49:37;96551.00;;;7.29;100.00
47366;BME280;33105;47.964;7.982;2023-11-21T15:52:38;96551.91;;;7.34;100.00
47366;BME280;33105;47.964;7.982;2023-11-21T15:55:39;96561.03;;;7.28;100.00
47366;BME280;33105;47.964;7.982;2023-11-21T15:58:43;96557.44;;;7.39;100.00
47366;BME280;33105;47.964;7.982;2023-11-21T16:01:45;96558.81;;;7.25;100.00
47366;BME280;33105;47.964;7.982;2023-11-21T16:04:47;96559.97;;;7.29;100.00
47366;BME280;33105;47.964;7.982;2023-11-21T16:07:49;96562.44;;;7.31;100.00
47366;BME280;33105;47.964;7.982;2023-11-21T16:10:51;96571.00;;;7.39;100.00
47366;BME280;33105;47.964;7.982;2023-11-21T16:13:52;96572.38;;;7.25;100.00
47366;BME280;33105;47.964;7.982;2023-11-21T16:16:54;96582.09;;;7.21;100.00